createdAt,value
2019-05-05T00:01:51.053Z,99.90
2019-05-05T00:04:21.308Z,99.90
2019-05-05T00:06:50.284Z,99.90
2019-05-05T00:09:18.985Z,99.90
2019-05-05T00:11:52.179Z,99.90
2019-05-05T00:14:39.064Z,99.90
2019-05-05T00:17:09.340Z,99.90
2019-05-05T00:19:37.980Z,99.90
2019-05-05T00:22:06.536Z,99.90
2019-05-05T00:24:35.195Z,99.90
2019-05-05T00:27:04.275Z,99.90
2019-05-05T00:29:34.686Z,99.90
2019-05-05T00:32:04.983Z,99.90
2019-05-05T00:34:34.994Z,99.90
2019-05-05T00:37:04.597Z,99.90
2019-05-05T00:39:34.464Z,99.90
2019-05-05T00:42:04.769Z,99.90
2019-05-05T00:44:35.201Z,99.90
2019-05-05T00:47:05.628Z,99.90
2019-05-05T00:49:45.605Z,99.90
2019-05-05T00:52:06.348Z,99.90
2019-05-05T00:54:34.914Z,99.90
2019-05-05T00:57:04.412Z,99.90
2019-05-05T00:59:34.780Z,99.90
2019-05-05T01:02:21.471Z,99.90
2019-05-05T01:05:07.997Z,99.90
2019-05-05T01:07:36.766Z,99.90
2019-05-05T01:10:08.677Z,99.90
2019-05-05T01:12:37.265Z,99.90
2019-05-05T01:15:06.871Z,99.90
2019-05-05T01:17:35.439Z,99.90
2019-05-05T01:20:06.938Z,99.90
2019-05-05T01:22:35.659Z,99.90
2019-05-05T01:25:06.378Z,99.90
2019-05-05T01:27:35.086Z,99.90
2019-05-05T01:30:09.135Z,99.90
2019-05-05T01:32:47.920Z,99.90
2019-05-05T01:35:16.554Z,99.90
2019-05-05T01:37:46.812Z,99.90
2019-05-05T01:40:20.757Z,99.90
2019-05-05T01:42:49.418Z,99.90
2019-05-05T01:45:18.204Z,99.90
2019-05-05T01:47:46.774Z,99.90
2019-05-05T01:50:20.885Z,99.90
2019-05-05T01:52:46.983Z,99.90
2019-05-05T01:55:15.806Z,99.90
2019-05-05T01:57:45.084Z,99.90
2019-05-05T02:00:14.827Z,99.90
2019-05-05T02:02:44.838Z,99.90
2019-05-05T02:05:14.778Z,99.90
2019-05-05T02:07:44.905Z,99.90
2019-05-05T02:10:15.211Z,99.90
2019-05-05T02:12:44.748Z,99.90
2019-05-05T02:15:14.950Z,99.90
2019-05-05T02:17:44.573Z,99.90
2019-05-05T02:20:34.641Z,99.90
2019-05-05T02:23:04.641Z,99.90
2019-05-05T02:25:34.594Z,99.90
2019-05-05T02:28:04.479Z,99.90
2019-05-05T02:30:47.291Z,99.90
2019-05-05T02:33:17.525Z,99.90
2019-05-05T02:35:46.224Z,99.90
2019-05-05T02:38:15.631Z,99.90
2019-05-05T02:40:46.522Z,99.90
2019-05-05T02:43:17.182Z,99.90
2019-05-05T02:45:55.214Z,99.90
2019-05-05T02:48:25.085Z,99.90
2019-05-05T02:51:01.261Z,99.90
2019-05-05T02:53:28.783Z,99.90
2019-05-05T02:56:01.113Z,99.90
2019-05-05T02:58:33.845Z,99.90
2019-05-05T03:01:05.100Z,99.90
2019-05-05T03:03:36.775Z,99.90
2019-05-05T03:06:05.418Z,99.90
2019-05-05T03:08:36.033Z,99.90
2019-05-05T03:11:05.922Z,99.90
2019-05-05T03:13:36.629Z,99.90
2019-05-05T03:16:19.646Z,99.90
2019-05-05T03:18:48.731Z,99.90
2019-05-05T03:21:18.772Z,99.90
2019-05-05T03:23:47.853Z,99.90
2019-05-05T03:26:17.022Z,99.90
2019-05-05T03:28:56.269Z,99.90
2019-05-05T03:31:26.575Z,99.90
2019-05-05T03:33:56.061Z,99.90
2019-05-05T03:36:26.680Z,99.90
2019-05-05T03:38:56.513Z,99.90
2019-05-05T03:41:28.147Z,99.90
2019-05-05T03:44:04.967Z,99.90
2019-05-05T03:46:34.893Z,99.90
2019-05-05T03:49:04.838Z,99.90
2019-05-05T03:51:34.489Z,99.90
2019-05-05T03:54:04.381Z,99.90
2019-05-05T03:56:34.731Z,99.90
2019-05-05T03:59:04.916Z,99.90
2019-05-05T04:01:38.101Z,99.90
2019-05-05T04:04:24.465Z,99.90
2019-05-05T04:06:55.872Z,99.90
2019-05-05T04:09:25.189Z,99.90
2019-05-05T04:11:54.362Z,99.90
2019-05-05T04:14:24.968Z,99.90
2019-05-05T04:17:10.886Z,99.90
2019-05-05T04:19:44.070Z,99.90
2019-05-05T04:22:13.594Z,99.90
2019-05-05T04:24:43.560Z,99.90
2019-05-05T04:27:14.419Z,99.90
2019-05-05T04:29:43.928Z,99.90
2019-05-05T04:32:14.073Z,99.90
2019-05-05T04:34:43.818Z,99.90
2019-05-05T04:37:14.924Z,99.90
2019-05-05T04:39:44.401Z,99.90
2019-05-05T04:42:14.005Z,99.90
2019-05-05T04:44:44.778Z,99.90
2019-05-05T04:47:14.669Z,99.90
2019-05-05T04:49:44.887Z,99.90
2019-05-05T04:52:20.997Z,99.90
2019-05-05T04:54:51.138Z,99.90
2019-05-05T04:57:19.788Z,99.90
2019-05-05T04:59:50.388Z,99.90
2019-05-05T05:02:23.689Z,99.90
2019-05-05T05:04:53.926Z,99.90
2019-05-05T05:07:24.150Z,99.90
2019-05-05T05:09:54.038Z,99.90
2019-05-05T05:12:23.743Z,99.90
2019-05-05T05:14:54.504Z,99.90
2019-05-05T05:17:24.920Z,99.90
2019-05-05T05:19:54.238Z,99.90
2019-05-05T05:22:24.298Z,99.90
2019-05-05T05:24:54.152Z,99.90
2019-05-05T05:27:24.519Z,99.90
2019-05-05T05:29:54.347Z,99.90
2019-05-05T05:32:24.690Z,99.90
2019-05-05T05:34:54.243Z,99.90
2019-05-05T05:37:24.017Z,99.90
2019-05-05T05:40:03.980Z,99.90
2019-05-05T05:42:33.566Z,99.90
2019-05-05T05:45:04.162Z,99.90
2019-05-05T05:47:50.810Z,99.90
2019-05-05T05:50:24.587Z,99.90
2019-05-05T05:52:54.066Z,99.90
2019-05-05T05:55:23.761Z,99.90
2019-05-05T05:57:54.214Z,99.90
2019-05-05T06:00:23.766Z,99.90
2019-05-05T06:02:54.493Z,99.90
2019-05-05T06:05:23.774Z,99.90
2019-05-05T06:07:54.472Z,99.90
2019-05-05T06:10:27.034Z,99.90
2019-05-05T06:12:54.694Z,99.90
2019-05-05T06:15:24.438Z,99.90
2019-05-05T06:17:53.932Z,99.90
2019-05-05T06:20:23.840Z,99.90
2019-05-05T06:22:53.590Z,99.90
2019-05-05T06:25:26.223Z,99.90
2019-05-05T06:27:53.979Z,99.90
2019-05-05T06:30:24.449Z,99.90
2019-05-05T06:32:54.472Z,99.90
2019-05-05T06:35:24.440Z,99.90
2019-05-05T06:37:54.265Z,99.90
2019-05-05T06:40:25.977Z,99.90
2019-05-05T06:43:11.438Z,99.90
2019-05-05T06:45:48.021Z,99.90
2019-05-05T06:48:16.594Z,99.90
2019-05-05T06:50:45.170Z,99.90
2019-05-05T06:53:14.086Z,99.90
2019-05-05T06:55:44.427Z,99.90
2019-05-05T06:58:13.645Z,99.90
2019-05-05T07:00:44.152Z,99.90
2019-05-05T07:03:13.881Z,99.90
2019-05-05T07:05:43.726Z,99.90
2019-05-05T07:08:13.791Z,99.90
2019-05-05T07:10:44.286Z,99.90
2019-05-05T07:13:14.013Z,99.90
2019-05-05T07:15:43.769Z,99.90
2019-05-05T07:18:14.194Z,99.90
2019-05-05T07:20:44.043Z,99.90
2019-05-05T07:23:14.553Z,99.90
2019-05-05T07:25:45.915Z,99.90
2019-05-05T07:28:14.649Z,99.90
2019-05-05T07:30:44.276Z,99.90
2019-05-05T07:33:14.805Z,99.90
2019-05-05T07:35:56.110Z,99.90
2019-05-05T07:38:15.196Z,99.90
2019-05-05T07:40:43.974Z,99.90
2019-05-05T07:43:14.621Z,99.90
2019-05-05T07:45:44.613Z,99.90
2019-05-05T07:48:13.831Z,99.90
2019-05-05T07:50:45.047Z,99.90
2019-05-05T07:53:17.501Z,99.90
2019-05-05T07:55:43.761Z,99.90
2019-05-05T07:58:13.865Z,99.90
2019-05-05T08:00:43.651Z,99.90
2019-05-05T08:03:14.378Z,99.90
2019-05-05T08:05:44.252Z,99.90
2019-05-05T08:08:13.984Z,99.90
2019-05-05T08:10:43.769Z,99.90
2019-05-05T08:13:14.165Z,99.90
2019-05-05T08:15:56.318Z,99.90
2019-05-05T08:18:18.863Z,99.90
2019-05-05T08:20:49.169Z,99.90
2019-05-05T08:23:29.151Z,99.90
2019-05-05T08:25:51.559Z,99.90
2019-05-05T08:28:23.545Z,99.90
2019-05-05T08:30:54.582Z,99.90
2019-05-05T08:33:24.116Z,99.90
2019-05-05T08:35:54.129Z,99.90
2019-05-05T08:38:24.217Z,99.90
2019-05-05T08:40:54.323Z,98.30
2019-05-05T08:43:24.199Z,99.90
2019-05-05T08:45:52.810Z,99.90
2019-05-05T08:48:21.379Z,99.90
2019-05-05T08:50:49.947Z,96.70
2019-05-05T08:53:18.635Z,98.90
2019-05-05T08:55:47.196Z,99.90
2019-05-05T08:58:16.120Z,99.90
2019-05-05T09:00:45.056Z,96.10
2019-05-05T09:03:13.975Z,98.30
2019-05-05T09:05:43.735Z,99.90
2019-05-05T09:08:13.796Z,98.20
2019-05-05T09:10:44.835Z,99.80
2019-05-05T09:13:14.368Z,97.60
2019-05-05T09:15:44.349Z,96.30
2019-05-05T09:18:14.132Z,92.10
2019-05-05T09:20:44.568Z,96.90
2019-05-05T09:23:14.717Z,99.90
2019-05-05T09:25:45.540Z,99.90
2019-05-05T09:28:15.733Z,98.90
2019-05-05T09:30:45.947Z,99.30
2019-05-05T09:33:17.910Z,97.80
2019-05-05T09:35:46.162Z,95.40
2019-05-05T09:38:14.917Z,96.30
2019-05-05T09:40:44.074Z,97.00
2019-05-05T09:43:14.732Z,99.90
2019-05-05T09:45:44.204Z,99.90
2019-05-05T09:48:13.895Z,99.90
2019-05-05T09:50:43.655Z,99.90
2019-05-05T09:53:14.521Z,99.20
2019-05-05T09:55:44.277Z,99.90
2019-05-05T09:58:13.829Z,99.90
2019-05-05T10:00:44.402Z,99.90
2019-05-05T10:03:14.503Z,99.90
2019-05-05T10:05:44.067Z,99.90
2019-05-05T10:08:14.250Z,99.90
2019-05-05T10:10:44.222Z,97.90
2019-05-05T10:13:14.913Z,99.40
2019-05-05T10:15:44.305Z,99.30
2019-05-05T10:18:14.135Z,98.90
2019-05-05T10:20:42.947Z,94.00
2019-05-05T10:23:11.535Z,94.80
2019-05-05T10:25:41.726Z,94.50
2019-05-05T10:28:10.589Z,96.30
2019-05-05T10:30:39.163Z,93.90
2019-05-05T10:33:07.904Z,94.80
2019-05-05T10:35:36.485Z,93.60
2019-05-05T10:38:05.115Z,99.30
2019-05-05T10:40:36.552Z,91.60
2019-05-05T10:43:05.360Z,95.10
2019-05-05T10:45:34.233Z,95.40
2019-05-05T10:48:04.057Z,80.90
2019-05-05T10:50:34.297Z,86.80
2019-05-05T10:53:04.576Z,79.00
2019-05-05T10:55:34.661Z,81.90
2019-05-05T10:58:03.901Z,80.30
2019-05-05T11:00:44.564Z,86.00
2019-05-05T11:03:14.858Z,75.80
2019-05-05T11:05:44.967Z,90.30
2019-05-05T11:08:14.007Z,74.50
2019-05-05T11:10:44.774Z,78.90
2019-05-05T11:13:13.354Z,75.30
2019-05-05T11:15:44.098Z,76.50
2019-05-05T11:18:14.582Z,71.20
2019-05-05T11:20:44.674Z,67.30
2019-05-05T11:23:14.964Z,68.30
2019-05-05T11:25:44.393Z,70.70
2019-05-05T11:28:13.214Z,83.50
2019-05-05T11:30:45.201Z,81.60
2019-05-05T11:33:34.253Z,84.70
2019-05-05T11:36:04.563Z,82.60
2019-05-05T11:38:33.840Z,87.70
2019-05-05T11:41:04.761Z,86.10
2019-05-05T11:43:33.800Z,87.40
2019-05-05T11:46:02.619Z,93.00
2019-05-05T11:48:31.207Z,87.30
2019-05-05T11:50:59.750Z,79.20
2019-05-05T11:53:28.346Z,82.70
2019-05-05T11:55:57.363Z,78.30
2019-05-05T11:58:25.997Z,70.40
2019-05-05T12:00:54.857Z,74.80
2019-05-05T12:03:23.873Z,67.20
2019-05-05T12:05:52.423Z,74.80
2019-05-05T12:08:21.394Z,67.20
2019-05-05T12:10:51.584Z,70.60
2019-05-05T12:13:20.183Z,70.80
2019-05-05T12:15:50.385Z,66.50
2019-05-05T12:18:18.950Z,74.40
2019-05-05T12:20:47.993Z,75.00
2019-05-05T12:23:16.555Z,77.00
2019-05-05T12:25:46.772Z,69.70
2019-05-05T12:28:26.026Z,73.20
2019-05-05T12:31:09.150Z,66.70
2019-05-05T12:33:37.649Z,64.30
2019-05-05T12:36:06.575Z,60.50
2019-05-05T12:38:35.449Z,63.20
2019-05-05T12:41:04.460Z,61.60
2019-05-05T12:43:34.004Z,59.10
2019-05-05T12:46:13.884Z,61.10
2019-05-05T12:48:44.185Z,65.30
2019-05-05T12:51:14.729Z,59.30
2019-05-05T12:53:43.030Z,61.00
2019-05-05T12:56:11.756Z,60.30
2019-05-05T12:58:40.374Z,66.70
2019-05-05T13:01:10.673Z,61.40
2019-05-05T13:03:39.219Z,64.60
2019-05-05T13:06:07.935Z,60.40
2019-05-05T13:08:36.519Z,67.40
2019-05-05T13:11:05.149Z,65.50
2019-05-05T13:13:34.616Z,61.00
2019-05-05T13:16:04.269Z,64.90
2019-05-05T13:18:33.968Z,69.70
2019-05-05T13:21:20.951Z,75.00
2019-05-05T13:23:51.468Z,66.40
2019-05-05T13:26:27.471Z,68.60
2019-05-05T13:28:55.969Z,73.10
2019-05-05T13:31:24.539Z,70.60
2019-05-05T13:33:54.944Z,71.60
2019-05-05T13:36:24.201Z,72.20
2019-05-05T13:38:54.540Z,71.20
2019-05-05T13:41:23.199Z,68.70
2019-05-05T13:43:53.979Z,72.20
2019-05-05T13:46:33.927Z,71.40
2019-05-05T13:49:20.454Z,70.90
2019-05-05T13:51:49.018Z,60.80
2019-05-05T13:54:17.593Z,61.90
2019-05-05T13:56:46.187Z,60.80
2019-05-05T13:59:14.748Z,58.90
2019-05-05T14:01:44.786Z,53.80
2019-05-05T14:04:13.471Z,55.30
2019-05-05T14:06:43.983Z,56.50
2019-05-05T14:09:13.836Z,60.00
2019-05-05T14:11:44.411Z,56.30
2019-05-05T14:14:13.774Z,58.00
2019-05-05T14:16:44.612Z,57.80
2019-05-05T14:19:14.682Z,57.00
2019-05-05T14:21:44.627Z,55.20
2019-05-05T14:24:30.260Z,53.10
2019-05-05T14:26:58.842Z,54.40
2019-05-05T14:29:45.376Z,55.80
2019-05-05T14:32:15.667Z,55.30
2019-05-05T14:34:45.958Z,56.90
2019-05-05T14:37:34.630Z,55.90
2019-05-05T14:40:04.828Z,56.40
2019-05-05T14:42:34.178Z,58.10
2019-05-05T14:45:04.768Z,60.20
2019-05-05T14:47:33.710Z,59.00
2019-05-05T14:50:04.548Z,57.80
2019-05-05T14:52:32.598Z,59.50
2019-05-05T14:55:03.759Z,55.40
2019-05-05T14:57:33.457Z,57.30
2019-05-05T15:00:01.960Z,58.70
2019-05-05T15:02:30.843Z,59.30
2019-05-05T15:05:01.048Z,63.10
2019-05-05T15:07:44.447Z,64.60
2019-05-05T15:10:17.706Z,61.60
2019-05-05T15:12:53.922Z,58.70
2019-05-05T15:15:23.555Z,60.30
2019-05-05T15:17:53.703Z,62.00
2019-05-05T15:20:24.448Z,63.50
2019-05-05T15:22:54.124Z,64.60
2019-05-05T15:25:23.458Z,63.10
2019-05-05T15:27:54.046Z,56.60
2019-05-05T15:30:24.966Z,55.80
2019-05-05T15:32:54.113Z,57.00
2019-05-05T15:35:22.929Z,56.00
2019-05-05T15:37:51.510Z,57.50
2019-05-05T15:40:20.160Z,59.10
2019-05-05T15:42:48.742Z,62.20
2019-05-05T15:45:17.548Z,58.50
2019-05-05T15:47:46.203Z,62.40
2019-05-05T15:50:15.506Z,63.50
2019-05-05T15:52:44.205Z,63.30
2019-05-05T15:55:14.238Z,63.50
2019-05-05T15:57:44.288Z,66.40
2019-05-05T16:00:14.221Z,68.70
2019-05-05T16:02:44.183Z,67.50
2019-05-05T16:05:13.834Z,67.60
2019-05-05T16:07:43.970Z,71.10
2019-05-05T16:10:13.762Z,65.20
2019-05-05T16:12:44.808Z,72.00
2019-05-05T16:15:15.821Z,74.50
2019-05-05T16:18:04.084Z,76.10
2019-05-05T16:20:37.133Z,75.20
2019-05-05T16:23:10.400Z,77.80
2019-05-05T16:25:38.979Z,75.40
2019-05-05T16:28:07.530Z,78.70
2019-05-05T16:30:36.048Z,70.40
2019-05-05T16:33:04.672Z,68.40
2019-05-05T16:35:34.266Z,72.40
2019-05-05T16:38:03.852Z,66.10
2019-05-05T16:40:33.895Z,70.70
2019-05-05T16:43:04.587Z,69.00
2019-05-05T16:45:34.009Z,68.80
2019-05-05T16:48:03.900Z,66.80
2019-05-05T16:50:34.053Z,71.20
2019-05-05T16:53:06.637Z,67.00
2019-05-05T16:55:46.114Z,68.90
2019-05-05T16:58:14.600Z,75.60
2019-05-05T17:00:44.153Z,76.00
2019-05-05T17:03:13.505Z,79.10
2019-05-05T17:05:44.058Z,84.60
2019-05-05T17:08:13.965Z,88.60
2019-05-05T17:10:43.559Z,89.90
2019-05-05T17:13:19.822Z,89.00
2019-05-05T17:15:50.050Z,89.60
2019-05-05T17:18:35.152Z,92.30
2019-05-05T17:21:19.321Z,92.30
2019-05-05T17:23:47.866Z,92.30
2019-05-05T17:26:16.464Z,94.40
2019-05-05T17:28:45.319Z,98.10
2019-05-05T17:31:13.943Z,94.20
2019-05-05T17:33:44.204Z,93.70
2019-05-05T17:36:14.013Z,96.80
2019-05-05T17:38:43.751Z,96.60
2019-05-05T17:41:34.037Z,96.10
2019-05-05T17:44:07.222Z,97.00
2019-05-05T17:46:37.438Z,98.30
2019-05-05T17:49:16.434Z,99.20
2019-05-05T17:51:46.695Z,99.90
2019-05-05T17:54:24.203Z,99.90
2019-05-05T17:56:55.065Z,99.90
2019-05-05T17:59:23.753Z,99.90
2019-05-05T18:01:53.961Z,99.90
2019-05-05T18:04:22.866Z,99.90
2019-05-05T18:06:58.637Z,99.90
2019-05-05T18:09:45.068Z,99.90
2019-05-05T18:12:15.270Z,99.90
2019-05-05T18:14:53.549Z,99.90
2019-05-05T18:17:21.670Z,99.90
2019-05-05T18:19:50.233Z,99.90
2019-05-05T18:22:18.819Z,99.90
2019-05-05T18:24:47.472Z,99.90
2019-05-05T18:27:16.259Z,99.90
2019-05-05T18:29:44.842Z,99.90
2019-05-05T18:32:13.882Z,99.90
2019-05-05T18:34:42.583Z,99.90
2019-05-05T18:37:11.240Z,99.90
2019-05-05T18:39:40.088Z,99.90
2019-05-05T18:42:24.546Z,99.90
2019-05-05T18:44:59.884Z,99.90
2019-05-05T18:47:29.494Z,99.90
2019-05-05T18:49:58.694Z,99.90
2019-05-05T18:52:28.195Z,99.90
2019-05-05T18:54:57.189Z,99.90
2019-05-05T18:57:26.005Z,99.90
2019-05-05T18:59:54.944Z,99.90
2019-05-05T19:02:40.178Z,99.90
2019-05-05T19:05:14.096Z,99.90
2019-05-05T19:07:55.138Z,99.90
2019-05-05T19:10:15.209Z,99.90
2019-05-05T19:12:44.319Z,99.90
2019-05-05T19:15:13.667Z,99.90
2019-05-05T19:17:42.653Z,99.90
2019-05-05T19:20:14.646Z,99.90
2019-05-05T19:22:43.630Z,99.90
2019-05-05T19:25:15.510Z,99.90
2019-05-05T19:27:45.706Z,99.90
2019-05-05T19:30:17.518Z,99.90
2019-05-05T19:32:46.059Z,99.90
2019-05-05T19:35:15.102Z,99.90
2019-05-05T19:37:44.500Z,99.90
2019-05-05T19:40:14.240Z,99.90
2019-05-05T19:42:46.058Z,99.90
2019-05-05T19:45:13.594Z,99.90
2019-05-05T19:47:43.828Z,99.90
2019-05-05T19:50:20.470Z,99.90
2019-05-05T19:52:49.024Z,99.90
2019-05-05T19:55:18.032Z,99.90
2019-05-05T19:57:46.753Z,99.90
2019-05-05T20:00:15.825Z,99.90
2019-05-05T20:02:44.438Z,99.90
2019-05-05T20:05:14.952Z,99.90
2019-05-05T20:07:43.983Z,99.90
2019-05-05T20:10:14.670Z,99.90
2019-05-05T20:12:44.867Z,99.90
2019-05-05T20:15:15.423Z,99.90
2019-05-05T20:17:44.594Z,99.90
2019-05-05T20:20:13.918Z,99.90
2019-05-05T20:22:44.439Z,99.90
2019-05-05T20:25:13.966Z,99.90
2019-05-05T20:27:42.769Z,99.90
2019-05-05T20:30:11.485Z,99.90
2019-05-05T20:32:56.046Z,99.90
2019-05-05T20:35:33.692Z,99.90
2019-05-05T20:38:04.761Z,99.90
2019-05-05T20:40:35.500Z,99.90
2019-05-05T20:43:04.158Z,99.90
2019-05-05T20:45:34.690Z,99.90
2019-05-05T20:48:04.546Z,99.90
2019-05-05T20:50:34.311Z,99.90
2019-05-05T20:53:04.821Z,99.90
2019-05-05T20:55:33.947Z,99.90
2019-05-05T20:58:04.585Z,99.90
2019-05-05T21:00:34.724Z,99.90
2019-05-05T21:03:04.794Z,99.90
2019-05-05T21:05:34.349Z,99.90
2019-05-05T21:08:04.701Z,99.90
2019-05-05T21:10:34.785Z,99.90
2019-05-05T21:13:03.804Z,99.90
2019-05-05T21:15:34.081Z,99.90
2019-05-05T21:18:04.973Z,99.90
2019-05-05T21:20:34.724Z,99.90
2019-05-05T21:23:10.954Z,99.90
2019-05-05T21:25:44.511Z,99.90
2019-05-05T21:28:14.596Z,99.90
2019-05-05T21:30:43.441Z,99.90
2019-05-05T21:33:12.002Z,99.90
2019-05-05T21:35:40.602Z,99.90
2019-05-05T21:38:09.246Z,99.90
2019-05-05T21:40:37.819Z,99.90
2019-05-05T21:43:06.385Z,99.90
2019-05-05T21:45:35.055Z,99.90
2019-05-05T21:48:04.446Z,99.90
2019-05-05T21:50:38.062Z,99.90
2019-05-05T21:53:08.259Z,99.90
2019-05-05T21:55:47.738Z,99.90
2019-05-05T21:58:25.332Z,99.90
2019-05-05T22:00:55.869Z,99.90
2019-05-05T22:03:26.455Z,99.90
2019-05-05T22:05:56.004Z,99.90
2019-05-05T22:08:24.698Z,99.90
2019-05-05T22:10:54.337Z,99.90
2019-05-05T22:13:23.022Z,99.90
2019-05-05T22:15:51.615Z,99.90
2019-05-05T22:18:20.500Z,99.90
2019-05-05T22:20:51.270Z,99.90
2019-05-05T22:23:19.860Z,99.90
2019-05-05T22:25:48.703Z,99.90
2019-05-05T22:28:17.353Z,99.90
2019-05-05T22:30:45.926Z,99.90
2019-05-05T22:33:14.521Z,99.90
2019-05-05T22:35:44.255Z,99.90
2019-05-05T22:38:13.697Z,99.90
2019-05-05T22:40:44.038Z,99.90
2019-05-05T22:43:14.513Z,99.90
2019-05-05T22:45:44.994Z,99.90
2019-05-05T22:48:14.345Z,99.90
2019-05-05T22:50:43.638Z,99.90
2019-05-05T22:53:14.030Z,99.90
2019-05-05T22:55:43.899Z,99.90
2019-05-05T22:58:14.306Z,99.90
2019-05-05T23:00:43.826Z,99.90
2019-05-05T23:03:32.481Z,99.90
2019-05-05T23:06:04.322Z,99.90
2019-05-05T23:08:34.892Z,99.90
2019-05-05T23:11:04.024Z,99.90
2019-05-05T23:13:33.716Z,99.90
2019-05-05T23:16:14.645Z,99.90
2019-05-05T23:18:44.291Z,99.90
2019-05-05T23:21:20.507Z,99.90
2019-05-05T23:24:06.721Z,99.90
2019-05-05T23:26:43.801Z,99.90
2019-05-05T23:29:12.554Z,99.90
2019-05-05T23:31:41.113Z,99.90
2019-05-05T23:34:09.674Z,99.90
2019-05-05T23:36:38.246Z,99.90
2019-05-05T23:39:07.692Z,99.90
2019-05-05T23:41:36.711Z,99.90
2019-05-05T23:44:05.634Z,99.90
2019-05-05T23:46:34.801Z,99.90
2019-05-05T23:49:04.397Z,99.90
2019-05-05T23:51:34.694Z,99.90
2019-05-05T23:54:04.258Z,99.90
2019-05-05T23:56:34.957Z,99.90
2019-05-05T23:59:04.205Z,99.90
